createdAt,value
2022-11-05T00:02:02.115Z,96699.69
2022-11-05T00:04:47.168Z,96687.94
2022-11-05T00:07:37.194Z,96697.31
2022-11-05T00:10:20.716Z,96694.88
2022-11-05T00:13:07.048Z,96675.81
2022-11-05T00:15:52.620Z,96685.09
2022-11-05T00:18:19.267Z,96684.06
2022-11-05T00:20:45.987Z,96682.81
2022-11-05T00:23:30.978Z,96682.81
2022-11-05T00:25:59.488Z,96685.97
2022-11-05T00:28:27.903Z,96681.38
2022-11-05T00:30:59.555Z,96670.66
2022-11-05T00:33:26.306Z,96678.22
2022-11-05T00:35:52.871Z,96672.81
2022-11-05T00:38:19.475Z,96674.78
2022-11-05T00:40:46.246Z,96693.09
2022-11-05T00:43:31.859Z,96696.88
2022-11-05T00:45:58.680Z,96694.16
2022-11-05T00:48:43.929Z,96672.13
2022-11-05T00:51:10.652Z,96660.28
2022-11-05T00:53:37.382Z,96676.63
2022-11-05T00:56:04.265Z,96684.41
2022-11-05T00:58:31.102Z,96675.81
2022-11-05T01:00:59.458Z,96679.31
2022-11-05T01:03:29.617Z,96674.72
2022-11-05T01:05:59.090Z,96670.41
2022-11-05T01:08:27.520Z,96671.53
2022-11-05T01:10:56.656Z,96671.78
2022-11-05T01:13:25.703Z,96677.97
2022-11-05T01:15:52.977Z,96672.09
2022-11-05T01:18:21.449Z,96679.72
2022-11-05T01:20:48.494Z,96668.22
2022-11-05T01:23:15.580Z,96687.28
2022-11-05T01:25:43.618Z,96682.75
2022-11-05T01:28:10.928Z,96677.91
2022-11-05T01:30:38.119Z,96662.06
2022-11-05T01:33:04.972Z,96655.13
2022-11-05T01:35:31.687Z,96656.72
2022-11-05T01:37:58.328Z,96659.34
2022-11-05T01:40:25.945Z,96666.38
2022-11-05T01:42:52.710Z,96663.94
2022-11-05T01:45:23.800Z,96658.78
2022-11-05T01:47:54.029Z,96661.00
2022-11-05T01:50:58.276Z,96656.66
2022-11-05T01:53:29.885Z,96656.16
2022-11-05T01:56:07.011Z,96651.34
2022-11-05T01:59:11.751Z,96648.69
2022-11-05T02:01:38.860Z,96655.44
2022-11-05T02:04:13.567Z,96662.97
2022-11-05T02:06:46.597Z,96666.19
2022-11-05T02:09:17.783Z,96662.44
2022-11-05T02:11:44.370Z,96648.50
2022-11-05T02:14:10.941Z,96659.00
2022-11-05T02:16:41.072Z,96667.91
2022-11-05T02:19:32.430Z,96662.25
2022-11-05T02:22:31.809Z,96671.94
2022-11-05T02:25:22.986Z,96657.97
2022-11-05T02:28:08.685Z,96661.72
2022-11-05T02:31:13.674Z,96655.03
2022-11-05T02:33:45.852Z,96655.31
2022-11-05T02:36:29.903Z,96651.50
2022-11-05T02:39:13.091Z,96656.09
2022-11-05T02:42:15.079Z,96656.63
2022-11-05T02:44:54.714Z,96653.13
2022-11-05T02:47:46.125Z,96666.63
2022-11-05T02:50:29.373Z,96653.72
2022-11-05T02:53:22.210Z,96651.84
2022-11-05T02:55:56.874Z,96651.59
2022-11-05T02:58:23.495Z,96657.53
2022-11-05T03:00:52.228Z,96664.53
2022-11-05T03:03:35.626Z,96660.78
2022-11-05T03:06:17.614Z,96663.19
2022-11-05T03:08:55.802Z,96658.47
2022-11-05T03:11:25.751Z,96664.13
2022-11-05T03:13:59.690Z,96664.16
2022-11-05T03:16:48.263Z,96660.44
2022-11-05T03:19:41.091Z,96664.53
2022-11-05T03:22:55.206Z,96656.25
2022-11-05T03:25:24.432Z,96645.84
2022-11-05T03:27:57.620Z,96638.06
2022-11-05T03:30:25.544Z,96654.22
2022-11-05T03:33:00.232Z,96639.66
2022-11-05T03:35:31.711Z,96642.09
2022-11-05T03:38:05.469Z,96633.78
2022-11-05T03:40:35.394Z,96638.91
2022-11-05T03:43:06.520Z,96636.81
2022-11-05T03:45:38.881Z,96646.28
2022-11-05T03:48:08.093Z,96642.25
2022-11-05T03:50:41.587Z,96656.78
2022-11-05T03:53:24.583Z,96651.72
2022-11-05T03:56:03.026Z,96665.16
2022-11-05T03:58:30.928Z,96667.31
2022-11-05T04:01:01.429Z,96651.19
2022-11-05T04:03:28.632Z,96664.91
2022-11-05T04:06:15.331Z,96675.94
2022-11-05T04:09:00.774Z,96664.66
2022-11-05T04:11:46.007Z,96660.63
2022-11-05T04:14:12.987Z,96667.59
2022-11-05T04:16:57.864Z,96660.88
2022-11-05T04:19:43.181Z,96642.31
2022-11-05T04:22:30.041Z,96662.69
2022-11-05T04:24:56.795Z,96643.88
2022-11-05T04:27:23.420Z,96653.50
2022-11-05T04:30:08.528Z,96652.38
2022-11-05T04:32:35.153Z,96664.25
2022-11-05T04:35:01.774Z,96660.44
2022-11-05T04:37:28.370Z,96649.19
2022-11-05T04:39:55.095Z,96662.31
2022-11-05T04:42:21.641Z,96667.13
2022-11-05T04:44:48.615Z,96662.56
2022-11-05T04:47:15.377Z,96645.09
2022-11-05T04:49:42.001Z,96659.59
2022-11-05T04:52:08.911Z,96667.09
2022-11-05T04:54:35.783Z,96668.44
2022-11-05T04:57:02.781Z,96672.22
2022-11-05T04:59:29.368Z,96678.34
2022-11-05T05:01:56.148Z,96677.56
2022-11-05T05:04:22.827Z,96692.31
2022-11-05T05:06:49.449Z,96695.00
2022-11-05T05:09:16.188Z,96699.81
2022-11-05T05:11:42.792Z,96691.97
2022-11-05T05:14:09.389Z,96677.75
2022-11-05T05:16:36.080Z,96695.97
2022-11-05T05:19:02.832Z,96686.03
2022-11-05T05:21:38.739Z,96690.03
2022-11-05T05:24:08.871Z,96677.69
2022-11-05T05:26:37.032Z,96687.31
2022-11-05T05:29:05.243Z,96687.56
2022-11-05T05:31:31.993Z,96695.34
2022-11-05T05:33:58.692Z,96697.78
2022-11-05T05:36:25.341Z,96694.25
2022-11-05T05:38:52.092Z,96691.03
2022-11-05T05:41:19.436Z,96696.16
2022-11-05T05:43:46.653Z,96701.28
2022-11-05T05:46:16.111Z,96716.28
2022-11-05T05:48:43.514Z,96720.81
2022-11-05T05:51:12.011Z,96718.41
2022-11-05T05:53:39.005Z,96718.63
2022-11-05T05:56:06.415Z,96713.25
2022-11-05T05:58:36.215Z,96726.41
2022-11-05T06:01:18.251Z,96714.03
2022-11-05T06:03:45.140Z,96718.31
2022-11-05T06:06:15.781Z,96729.59
2022-11-05T06:08:42.642Z,96732.78
2022-11-05T06:11:09.900Z,96734.38
2022-11-05T06:13:37.537Z,96747.28
2022-11-05T06:16:07.235Z,96747.06
2022-11-05T06:18:34.772Z,96763.41
2022-11-05T06:21:03.062Z,96762.06
2022-11-05T06:23:33.657Z,96759.59
2022-11-05T06:26:02.453Z,96759.03
2022-11-05T06:28:29.647Z,96743.97
2022-11-05T06:30:59.389Z,96762.72
2022-11-05T06:33:26.756Z,96756.19
2022-11-05T06:35:54.316Z,96753.16
2022-11-05T06:38:21.103Z,96752.31
2022-11-05T06:40:47.781Z,96747.72
2022-11-05T06:43:14.841Z,96759.78
2022-11-05T06:45:41.647Z,96763.50
2022-11-05T06:48:09.456Z,96758.34
2022-11-05T06:50:36.164Z,96759.44
2022-11-05T06:53:04.909Z,96781.75
2022-11-05T06:55:32.269Z,96767.94
2022-11-05T06:58:05.285Z,96765.25
2022-11-05T07:00:34.546Z,96758.00
2022-11-05T07:03:10.225Z,96741.28
2022-11-05T07:05:47.433Z,96759.44
2022-11-05T07:08:14.321Z,96762.13
2022-11-05T07:10:40.942Z,96756.69
2022-11-05T07:13:08.732Z,96761.75
2022-11-05T07:15:36.698Z,96751.53
2022-11-05T07:18:04.354Z,96752.31
2022-11-05T07:20:34.144Z,96750.56
2022-11-05T07:23:02.692Z,96761.59
2022-11-05T07:25:31.930Z,96760.47
2022-11-05T07:27:58.526Z,96760.13
2022-11-05T07:30:25.861Z,96763.28
2022-11-05T07:32:52.898Z,96767.50
2022-11-05T07:35:19.471Z,96749.22
2022-11-05T07:37:48.067Z,96758.16
2022-11-05T07:40:16.228Z,96763.19
2022-11-05T07:42:44.459Z,96755.31
2022-11-05T07:45:12.483Z,96757.66
2022-11-05T07:47:50.667Z,96750.31
2022-11-05T07:50:20.267Z,96748.84
2022-11-05T07:52:48.257Z,96755.50
2022-11-05T07:55:15.609Z,96755.94
2022-11-05T07:57:46.801Z,96741.28
2022-11-05T08:00:22.600Z,96750.53
2022-11-05T08:03:08.958Z,96758.28
2022-11-05T08:05:38.916Z,96750.09
2022-11-05T08:08:07.604Z,96750.00
2022-11-05T08:10:34.534Z,96749.63
2022-11-05T08:13:01.385Z,96755.25
2022-11-05T08:15:28.285Z,96758.59
2022-11-05T08:17:59.691Z,96753.59
2022-11-05T08:20:26.753Z,96756.41
2022-11-05T08:22:54.386Z,96754.13
2022-11-05T08:25:21.240Z,96748.59
2022-11-05T08:27:48.592Z,96753.94
2022-11-05T08:30:15.367Z,96762.47
2022-11-05T08:32:41.970Z,96762.34
2022-11-05T08:35:08.850Z,96765.06
2022-11-05T08:37:35.553Z,96764.75
2022-11-05T08:40:02.246Z,96767.66
2022-11-05T08:42:28.995Z,96767.38
2022-11-05T08:44:55.732Z,96768.97
2022-11-05T08:47:22.370Z,96773.19
2022-11-05T08:49:49.071Z,96772.59
2022-11-05T08:52:23.485Z,96759.94
2022-11-05T08:54:50.113Z,96765.38
2022-11-05T08:57:16.818Z,96757.94
2022-11-05T08:59:43.396Z,96766.88
2022-11-05T09:02:11.516Z,96765.97
2022-11-05T09:04:38.385Z,96766.56
2022-11-05T09:07:04.954Z,96756.53
2022-11-05T09:09:31.642Z,96757.59
2022-11-05T09:12:11.662Z,96763.91
2022-11-05T09:14:39.462Z,96777.84
2022-11-05T09:17:16.954Z,96764.38
2022-11-05T09:19:44.194Z,96772.03
2022-11-05T09:22:12.889Z,96769.31
2022-11-05T09:24:40.234Z,96776.53
2022-11-05T09:27:10.852Z,96773.50
2022-11-05T09:29:37.932Z,96773.88
2022-11-05T09:32:04.645Z,96770.75
2022-11-05T09:34:31.857Z,96771.00
2022-11-05T09:36:58.934Z,96766.88
2022-11-05T09:39:25.867Z,96769.72
2022-11-05T09:41:56.611Z,96777.75
2022-11-05T09:44:42.164Z,96761.19
2022-11-05T09:47:15.698Z,96755.34
2022-11-05T09:49:48.121Z,96762.28
2022-11-05T09:52:24.376Z,96763.47
2022-11-05T09:54:51.589Z,96772.63
2022-11-05T09:57:24.605Z,96773.16
2022-11-05T09:59:57.298Z,96775.94
2022-11-05T10:02:30.481Z,96770.84
2022-11-05T10:05:09.659Z,96766.56
2022-11-05T10:07:44.721Z,96771.50
2022-11-05T10:10:37.852Z,96760.50
2022-11-05T10:13:34.828Z,96762.75
2022-11-05T10:16:21.890Z,96763.91
2022-11-05T10:18:58.676Z,96762.44
2022-11-05T10:21:51.302Z,96760.38
2022-11-05T10:24:19.052Z,96757.03
2022-11-05T10:26:52.436Z,96739.13
2022-11-05T10:29:29.012Z,96721.38
2022-11-05T10:32:00.575Z,96721.69
2022-11-05T10:34:36.519Z,96739.28
2022-11-05T10:37:04.397Z,96744.75
2022-11-05T10:39:32.965Z,96747.78
2022-11-05T10:42:08.789Z,96753.56
2022-11-05T10:44:59.950Z,96745.38
2022-11-05T10:47:39.380Z,96747.28
2022-11-05T10:50:12.764Z,96750.03
2022-11-05T10:52:51.609Z,96743.75
2022-11-05T10:55:26.150Z,96746.44
2022-11-05T10:57:53.390Z,96738.59
2022-11-05T11:00:25.898Z,96746.22
2022-11-05T11:02:59.084Z,96739.97
2022-11-05T11:05:32.700Z,96734.81
2022-11-05T11:08:11.679Z,96748.22
2022-11-05T11:10:54.833Z,96747.09
2022-11-05T11:13:48.003Z,96740.31
2022-11-05T11:16:20.889Z,96733.88
2022-11-05T11:18:56.647Z,96733.69
2022-11-05T11:21:24.110Z,96731.88
2022-11-05T11:24:06.607Z,96721.78
2022-11-05T11:26:39.276Z,96724.47
2022-11-05T11:29:13.348Z,96734.19
2022-11-05T11:31:41.026Z,96724.69
2022-11-05T11:34:15.074Z,96722.44
2022-11-05T11:36:48.816Z,96731.34
2022-11-05T11:39:20.187Z,96728.16
2022-11-05T11:41:52.203Z,96719.28
2022-11-05T11:44:27.051Z,96723.69
2022-11-05T11:47:03.110Z,96701.41
2022-11-05T11:49:49.548Z,96695.81
2022-11-05T11:52:34.553Z,96718.53
2022-11-05T11:55:18.973Z,96726.56
2022-11-05T11:57:47.360Z,96720.41
2022-11-05T12:00:15.515Z,96717.94
2022-11-05T12:02:51.095Z,96718.56
2022-11-05T12:05:32.792Z,96721.88
2022-11-05T12:08:24.484Z,96722.16
2022-11-05T12:11:15.348Z,96709.72
2022-11-05T12:13:44.699Z,96714.09
2022-11-05T12:16:41.806Z,96719.00
2022-11-05T12:19:43.922Z,96721.75
2022-11-05T12:22:40.140Z,96718.06
2022-11-05T12:25:34.097Z,96722.19
2022-11-05T12:28:36.078Z,96728.25
2022-11-05T12:31:05.614Z,96724.63
2022-11-05T12:33:56.443Z,96739.31
2022-11-05T12:36:40.113Z,96726.00
2022-11-05T12:39:19.265Z,96727.03
2022-11-05T12:41:56.272Z,96731.00
2022-11-05T12:44:37.103Z,96729.88
2022-11-05T12:47:18.582Z,96742.53
2022-11-05T12:50:09.668Z,96735.59
2022-11-05T12:52:58.124Z,96742.41
2022-11-05T12:55:27.459Z,96728.97
2022-11-05T12:58:08.497Z,96740.16
2022-11-05T13:00:39.799Z,96744.13
2022-11-05T13:03:24.497Z,96737.75
2022-11-05T13:06:21.584Z,96744.13
2022-11-05T13:09:04.388Z,96731.00
2022-11-05T13:11:48.461Z,96738.53
2022-11-05T13:14:26.419Z,96731.13
2022-11-05T13:17:19.051Z,96732.63
2022-11-05T13:20:01.750Z,96719.03
2022-11-05T13:22:45.978Z,96739.34
2022-11-05T13:25:16.694Z,96734.09
2022-11-05T13:27:52.727Z,96734.88
2022-11-05T13:30:20.936Z,96737.63
2022-11-05T13:32:55.654Z,96739.22
2022-11-05T13:35:29.971Z,96735.38
2022-11-05T13:38:23.628Z,96743.69
2022-11-05T13:41:09.039Z,96737.38
2022-11-05T13:44:16.441Z,96743.22
2022-11-05T13:47:01.087Z,96739.22
2022-11-05T13:49:39.638Z,96748.13
2022-11-05T13:52:09.323Z,96748.78
2022-11-05T13:54:52.620Z,96742.41
2022-11-05T13:57:46.953Z,96744.56
2022-11-05T14:00:22.986Z,96743.63
2022-11-05T14:02:57.149Z,96743.88
2022-11-05T14:05:33.328Z,96742.13
2022-11-05T14:08:10.020Z,96743.81
2022-11-05T14:10:43.534Z,96718.47
2022-11-05T14:13:41.284Z,96746.38
2022-11-05T14:16:41.785Z,96738.94
2022-11-05T14:19:18.803Z,96765.88
2022-11-05T14:21:51.502Z,96736.53
2022-11-05T14:24:40.598Z,96764.72
2022-11-05T14:27:07.233Z,96767.84
2022-11-05T14:29:38.069Z,96771.13
2022-11-05T14:32:24.912Z,96764.91
2022-11-05T14:35:17.532Z,96774.78
2022-11-05T14:37:58.022Z,96767.97
2022-11-05T14:40:27.737Z,96773.16
2022-11-05T14:43:05.962Z,96764.19
2022-11-05T14:45:39.337Z,96761.72
2022-11-05T14:48:23.619Z,96772.50
2022-11-05T14:50:50.979Z,96765.47
2022-11-05T14:53:38.015Z,96775.94
2022-11-05T14:56:06.911Z,96768.72
2022-11-05T14:58:36.796Z,96751.28
2022-11-05T15:01:07.046Z,96775.63
2022-11-05T15:03:59.864Z,96774.53
2022-11-05T15:06:36.986Z,96767.03
2022-11-05T15:09:03.879Z,96773.13
2022-11-05T15:11:37.258Z,96777.31
2022-11-05T15:14:08.436Z,96774.91
2022-11-05T15:16:44.855Z,96771.25
2022-11-05T15:19:26.177Z,96772.88
2022-11-05T15:21:56.747Z,96770.63
2022-11-05T15:24:25.505Z,96775.78
2022-11-05T15:27:03.796Z,96768.75
2022-11-05T15:29:31.998Z,96764.09
2022-11-05T15:31:59.381Z,96766.84
2022-11-05T15:34:29.019Z,96772.63
2022-11-05T15:37:01.001Z,96782.88
2022-11-05T15:39:40.925Z,96777.44
2022-11-05T15:42:27.912Z,96762.34
2022-11-05T15:45:06.181Z,96754.00
2022-11-05T15:47:35.927Z,96773.22
2022-11-05T15:50:15.405Z,96788.13
2022-11-05T15:52:52.523Z,96773.19
2022-11-05T15:55:25.540Z,96770.00
2022-11-05T15:58:09.396Z,96756.22
2022-11-05T16:00:38.452Z,96771.91
2022-11-05T16:03:17.513Z,96756.53
2022-11-05T16:05:48.542Z,96765.78
2022-11-05T16:08:24.153Z,96796.53
2022-11-05T16:10:56.650Z,96776.66
2022-11-05T16:13:32.594Z,96800.84
2022-11-05T16:16:03.651Z,96808.94
2022-11-05T16:18:34.568Z,96771.75
2022-11-05T16:21:08.231Z,96806.34
2022-11-05T16:23:59.644Z,96769.44
2022-11-05T16:27:03.975Z,96807.75
2022-11-05T16:29:53.566Z,96756.69
2022-11-05T16:32:31.598Z,96799.97
2022-11-05T16:35:02.800Z,96804.63
2022-11-05T16:37:37.711Z,96806.69
2022-11-05T16:40:18.263Z,96767.78
2022-11-05T16:42:52.017Z,96805.81
2022-11-05T16:45:23.009Z,96813.97
2022-11-05T16:47:49.680Z,96815.72
2022-11-05T16:50:30.585Z,96810.84
2022-11-05T16:52:57.220Z,96817.75
2022-11-05T16:55:23.823Z,96803.78
2022-11-05T16:57:53.670Z,96810.31
2022-11-05T17:00:21.707Z,96826.59
2022-11-05T17:02:48.469Z,96814.75
2022-11-05T17:05:20.342Z,96809.94
2022-11-05T17:07:47.648Z,96819.53
2022-11-05T17:10:14.673Z,96824.47
2022-11-05T17:12:42.215Z,96818.84
2022-11-05T17:15:35.675Z,96820.16
2022-11-05T17:18:04.922Z,96821.88
2022-11-05T17:20:39.508Z,96822.97
2022-11-05T17:23:12.669Z,96828.72
2022-11-05T17:25:41.201Z,96830.44
2022-11-05T17:28:08.333Z,96825.94
2022-11-05T17:30:35.491Z,96825.25
2022-11-05T17:33:02.311Z,96829.88
2022-11-05T17:35:29.047Z,96838.03
2022-11-05T17:37:55.825Z,96831.28
2022-11-05T17:40:23.483Z,96837.50
2022-11-05T17:42:51.710Z,96836.72
2022-11-05T17:45:18.852Z,96833.00
2022-11-05T17:47:45.856Z,96835.25
2022-11-05T17:50:17.275Z,96839.06
2022-11-05T17:52:44.348Z,96840.16
2022-11-05T17:55:18.804Z,96839.69
2022-11-05T17:57:47.749Z,96843.00
2022-11-05T18:00:20.921Z,96818.63
2022-11-05T18:02:49.691Z,96839.31
2022-11-05T18:05:18.432Z,96828.53
2022-11-05T18:07:45.463Z,96844.22
2022-11-05T18:10:13.321Z,96833.50
2022-11-05T18:12:40.499Z,96845.34
2022-11-05T18:15:08.164Z,96851.06
2022-11-05T18:17:34.973Z,96854.28
2022-11-05T18:20:01.976Z,96873.06
2022-11-05T18:22:28.674Z,96877.50
2022-11-05T18:24:55.614Z,96889.28
2022-11-05T18:27:24.655Z,96886.47
2022-11-05T18:29:51.347Z,96886.84
2022-11-05T18:32:18.308Z,96896.72
2022-11-05T18:34:45.116Z,96907.97
2022-11-05T18:37:11.699Z,96914.59
2022-11-05T18:39:38.514Z,96910.88
2022-11-05T18:42:05.579Z,96908.47
2022-11-05T18:44:37.821Z,96901.44
2022-11-05T18:47:07.035Z,96908.19
2022-11-05T18:49:34.355Z,96911.38
2022-11-05T18:52:01.045Z,96909.78
2022-11-05T18:54:33.102Z,96902.34
2022-11-05T18:57:01.356Z,96917.00
2022-11-05T18:59:37.649Z,96915.19
2022-11-05T19:02:07.336Z,96926.84
2022-11-05T19:04:37.389Z,96917.81
2022-11-05T19:07:05.897Z,96906.25
2022-11-05T19:09:34.624Z,96911.38
2022-11-05T19:12:04.434Z,96929.75
2022-11-05T19:14:31.509Z,96931.16
2022-11-05T19:16:59.127Z,96942.00
2022-11-05T19:19:26.230Z,96943.41
2022-11-05T19:21:52.984Z,96941.00
2022-11-05T19:24:20.076Z,96944.31
2022-11-05T19:26:47.518Z,96942.69
2022-11-05T19:29:14.171Z,96947.59
2022-11-05T19:31:41.232Z,96951.69
2022-11-05T19:34:08.255Z,96957.41
2022-11-05T19:36:34.990Z,96954.97
2022-11-05T19:39:06.442Z,96963.72
2022-11-05T19:41:33.461Z,96958.91
2022-11-05T19:44:01.813Z,96956.47
2022-11-05T19:46:30.454Z,96960.50
2022-11-05T19:48:57.076Z,96963.22
2022-11-05T19:51:26.482Z,96964.31
2022-11-05T19:53:55.256Z,96968.94
2022-11-05T19:56:25.019Z,96964.59
2022-11-05T19:58:53.293Z,96974.84
2022-11-05T20:01:21.874Z,96974.84
2022-11-05T20:03:49.135Z,96972.16
2022-11-05T20:06:19.102Z,96974.38
2022-11-05T20:09:19.856Z,96966.81
2022-11-05T20:11:35.877Z,96965.72
2022-11-05T20:14:03.909Z,96973.34
2022-11-05T20:16:36.884Z,96976.13
2022-11-05T20:19:08.707Z,96978.03
2022-11-05T20:21:35.632Z,96974.53
2022-11-05T20:24:02.565Z,96978.34
2022-11-05T20:26:30.175Z,96978.34
2022-11-05T20:28:56.740Z,96978.94
2022-11-05T20:31:23.692Z,96983.81
2022-11-05T20:33:51.327Z,96985.53
2022-11-05T20:36:20.305Z,96992.53
2022-11-05T20:38:55.366Z,96985.09
2022-11-05T20:41:22.697Z,96989.50
2022-11-05T20:43:49.292Z,96995.81
2022-11-05T20:46:18.671Z,97006.41
2022-11-05T20:48:45.991Z,96995.06
2022-11-05T20:51:15.272Z,96995.84
2022-11-05T20:53:42.643Z,96997.75
2022-11-05T20:56:17.119Z,97002.09
2022-11-05T20:58:44.427Z,97001.00
2022-11-05T21:01:12.808Z,97005.00
2022-11-05T21:03:40.039Z,97015.56
2022-11-05T21:06:07.757Z,97012.06
2022-11-05T21:08:34.997Z,97011.25
2022-11-05T21:11:01.710Z,97001.28
2022-11-05T21:13:29.090Z,96999.66
2022-11-05T21:15:57.919Z,97003.19
2022-11-05T21:18:27.514Z,97002.09
2022-11-05T21:20:54.727Z,97005.09
2022-11-05T21:23:21.964Z,97000.47
2022-11-05T21:25:48.854Z,97006.91
2022-11-05T21:28:16.390Z,96999.88
2022-11-05T21:30:45.797Z,97005.41
2022-11-05T21:33:14.441Z,96989.78
2022-11-05T21:35:46.630Z,97008.09
2022-11-05T21:38:15.128Z,96999.53
2022-11-05T21:40:42.547Z,97007.09
2022-11-05T21:43:09.694Z,97016.88
2022-11-05T21:45:39.598Z,97013.66
2022-11-05T21:48:07.362Z,97007.28
2022-11-05T21:50:53.659Z,97013.56
2022-11-05T21:53:38.822Z,97017.16
2022-11-05T21:56:36.580Z,97024.75
2022-11-05T21:59:22.752Z,97024.84
2022-11-05T22:01:49.849Z,97019.75
2022-11-05T22:04:16.835Z,97020.41
2022-11-05T22:06:43.391Z,97024.00
2022-11-05T22:09:10.012Z,97025.69
2022-11-05T22:11:37.434Z,97023.53
2022-11-05T22:14:04.433Z,97030.41
2022-11-05T22:16:31.131Z,97021.13
2022-11-05T22:18:59.049Z,97025.50
2022-11-05T22:21:25.660Z,97023.13
2022-11-05T22:23:52.923Z,97014.28
2022-11-05T22:26:19.719Z,97018.13
2022-11-05T22:28:48.931Z,97017.66
2022-11-05T22:31:16.751Z,97032.25
2022-11-05T22:33:43.839Z,97023.09
2022-11-05T22:36:11.130Z,97028.84
2022-11-05T22:38:38.182Z,97027.00
2022-11-05T22:41:09.032Z,97024.84
2022-11-05T22:43:35.850Z,97025.16
2022-11-05T22:46:07.596Z,97026.22
2022-11-05T22:48:38.724Z,97017.88
2022-11-05T22:51:09.199Z,97027.06
2022-11-05T22:53:36.680Z,97029.28
2022-11-05T22:56:08.901Z,97016.59
2022-11-05T22:58:35.823Z,97025.56
2022-11-05T23:01:02.963Z,97031.50
2022-11-05T23:03:31.003Z,97030.72
2022-11-05T23:05:59.956Z,97032.66
2022-11-05T23:08:45.501Z,97038.38
2022-11-05T23:11:34.773Z,97040.59
2022-11-05T23:14:02.316Z,97044.94
2022-11-05T23:16:47.817Z,97040.94
2022-11-05T23:19:33.116Z,97044.69
2022-11-05T23:22:18.488Z,97041.25
2022-11-05T23:24:45.230Z,97027.78
2022-11-05T23:27:12.137Z,97036.69
2022-11-05T23:29:38.802Z,97036.69
2022-11-05T23:32:23.936Z,97045.34
2022-11-05T23:34:52.174Z,97039.94
2022-11-05T23:37:38.525Z,97048.28
2022-11-05T23:40:07.850Z,97052.09
2022-11-05T23:42:53.560Z,97059.69
2022-11-05T23:45:39.414Z,97060.53
2022-11-05T23:48:19.311Z,97062.16
2022-11-05T23:50:56.280Z,97053.81
2022-11-05T23:53:23.772Z,97063.56
2022-11-05T23:55:50.842Z,97061.91
2022-11-05T23:58:18.324Z,97059.50
